Погода Турмасовона неделю

Тамбовская область, Россия

13 - 19 июля
  • 13июля
    Сегодня
    +18°
    +29°
    Ясно и безоблачно
    ВремяПогодаТемператураВлажностьДавлениеВетер, м/сВероятность осадков
    00:00Ясно и безоблачно+18°C68 %752 мм1.2 м/с2 %
    03:00Ясно и безоблачно+16°C82 %752 мм1.4 м/с2 %
    06:00Ясно и безоблачно+16°C78 %752 мм1.1 м/с2 %
    09:00Ясно и безоблачно+23°C49 %752 мм1.7 м/с2 %
    12:00Небольшая облачность+25°C38 %751 мм1.6 м/с2 %
    15:00Ясно и безоблачно+28°C36 %750 мм2.0 м/с2 %
    18:00Ясно и безоблачно+28°C39 %750 мм2.0 м/с2 %
    21:00Ясно и безоблачно+24°C58 %750 мм1.1 м/с2 %
  • 14июля
    Воскресенье
    +20°
    +31°
    Облачно с прояснениями
    ВремяПогодаТемператураВлажностьДавлениеВетер, м/сВероятность осадков
    00:00Небольшая облачность+20°C66 %750 мм1.1 м/с2 %
    03:00Небольшая облачность+19°C69 %750 мм1.7 м/с2 %
    06:00Облачно с прояснениями+19°C68 %750 мм1.4 м/с2 %
    09:00Небольшая облачность+25°C49 %750 мм2.0 м/с4 %
    12:00Практически безоблачно+29°C46 %749 мм1.9 м/с8 %
    15:00Облачно с прояснениями+30°C47 %749 мм1.6 м/с10 %
    18:00Небольшая облачность+30°C62 %749 мм1.9 м/с48 %
    21:00Облачно с прояснениями+25°C79 %749 мм0.9 м/с17 %
  • 15июля
    Понедельник
    +20°
    +30°
    Практически безоблачно
    ВремяПогодаТемператураВлажностьДавлениеВетер, м/сВероятность осадков
    00:00Небольшая облачность+21°C96 %748 мм0.9 м/с8 %
    03:00Практически безоблачно+21°C97 %748 мм1.3 м/с9 %
    06:00Облачно с прояснениями+21°C91 %749 мм1.3 м/с12 %
    09:00Небольшая облачность+25°C69 %749 мм1.8 м/с8 %
    12:00Практически безоблачно+28°C60 %749 мм2.0 м/с32 %
    15:00Практически безоблачно+30°C57 %749 мм2.0 м/с24 %
    18:00Практически безоблачно+29°C58 %749 мм2.1 м/с24 %
    21:00Ясно и безоблачно+26°C78 %750 мм1.1 м/с7 %
  • 16июля
    Вторник
    +20°
    +31°
    Практически безоблачно
    ВремяПогодаТемператураВлажностьДавлениеВетер, м/сВероятность осадков
    00:00Ясно и безоблачно+22°C90 %749 мм1.1 м/с3 %
    03:00Ясно и безоблачно+21°C95 %750 мм1.5 м/с2 %
    06:00Ясно и безоблачно+21°C89 %750 мм1.3 м/с2 %
    09:00Ясно и безоблачно+26°C61 %750 мм1.4 м/с2 %
    12:00Практически безоблачно+29°C48 %750 мм1.9 м/с13 %
    15:00Практически безоблачно+30°C47 %750 мм1.7 м/с17 %
    18:00Ясно и безоблачно+30°C48 %750 мм1.9 м/с29 %
    21:00Ясно и безоблачно+27°C63 %750 мм0.7 м/с9 %
  • 17июля
    Среда
    +20°
    +30°
    Небольшая облачность и лёгкий дождик
    ВремяПогодаТемператураВлажностьДавлениеВетер, м/сВероятность осадков
    00:00Ясно и безоблачно+23°C80 %750 мм0.9 м/с2 %
    03:00Ясно и безоблачно+21°C89 %751 мм1.4 м/с2 %
    06:00Ясно и безоблачно+21°C80 %751 мм1.3 м/с4 %
    09:00Ясно и безоблачно+26°C52 %751 мм1.5 м/с3 %
    12:00Практически безоблачно+30°C46 %751 мм2.0 м/с23 %
    15:00Небольшая облачность и лёгкий дождик+30°C44 %751 мм1.5 м/с15 %
    18:00Практически безоблачно+30°C45 %750 мм1.8 м/с13 %
    21:00Ясно и безоблачно+26°C67 %750 мм1.3 м/с2 %
Мы используем cookies
Соглашаюсь